Time;durP1;ratioP1;P1;durP2;ratioP2;P2;SDS_P1;SDS_P2;PMS_P1;PMS_P2;Temp;Humidity;BMP_temperature;BMP_pressure;BME280_temperature;BME280_humidity;BME280_pressure;Samples;Min_cycle;Max_cycle;Signal;HPM_P1;HPM_P2
2024/04/05 05:17:33;;;;;;;;;;;;;;;6.91;100.00;99339.41;4913176;29;20404;-82
2024/04/05 05:19:59;;;;;;;;;;;;;;;6.94;100.00;99334.03;4918887;29;19927;-81
2024/04/05 05:22:24;;;;;;;;;;;;;;;7.02;100.00;99328.47;4918616;29;20017;-82
2024/04/05 05:24:49;;;;;;;;;;;;;;;7.07;100.00;99335.31;4918686;29;20551;-82
2024/04/05 05:27:14;;;;;;;;;;;;;;;7.13;100.00;99322.81;4918829;29;19920;-82
2024/04/05 05:29:39;;;;;;;;;;;;;;;7.18;100.00;99320.88;4900175;29;19929;-83
2024/04/05 05:32:07;;;;;;;;;;;;;;;7.21;100.00;99326.03;4885600;29;20002;-83
2024/04/05 05:34:33;;;;;;;;;;;;;;;7.24;100.00;99331.19;4918515;29;20618;-83
2024/04/05 05:36:58;;;;;;;;;;;;;;;7.27;100.00;99336.34;4901442;29;19927;-83
2024/04/05 05:39:23;;;;;;;;;;;;;;;7.29;100.00;99334.50;4918558;29;19970;-82
2024/04/05 05:41:48;;;;;;;;;;;;;;;7.35;100.00;99342.19;4901518;29;19919;-86
2024/04/05 05:44:14;;;;;;;;;;;;;;;7.34;100.00;99342.25;4917244;29;19963;-83
2024/04/05 05:46:40;;;;;;;;;;;;;;;7.36;100.00;99338.66;4917636;29;19919;-82
2024/04/05 05:49:05;;;;;;;;;;;;;;;7.38;100.00;99321.00;4918354;29;19926;-93
2024/04/05 05:51:30;;;;;;;;;;;;;;;7.39;100.00;99306.91;4918285;29;19930;-86
2024/04/05 05:53:55;;;;;;;;;;;;;;;7.42;100.00;99283.09;4918054;29;19975;-81
2024/04/05 05:56:21;;;;;;;;;;;;;;;7.50;100.00;99266.09;4901264;29;19978;-81
2024/04/05 05:58:47;;;;;;;;;;;;;;;7.49;100.00;99261.75;4917802;29;20272;-82
2024/04/05 06:01:12;;;;;;;;;;;;;;;7.51;100.00;99259.91;4916758;29;20302;-82
2024/04/05 06:03:37;;;;;;;;;;;;;;;7.52;100.00;99269.56;4918222;29;19927;-88
2024/04/05 06:06:06;;;;;;;;;;;;;;;7.56;100.00;99273.78;4917962;29;19923;-83
2024/04/05 06:08:31;;;;;;;;;;;;;;;7.58;100.00;99261.41;4917339;29;20055;-88
2024/04/05 06:10:56;;;;;;;;;;;;;;;7.59;100.00;99263.13;4900799;29;19998;-83
2024/04/05 06:13:23;;;;;;;;;;;;;;;7.62;100.00;99274.38;4900595;29;19923;-84
2024/04/05 06:15:55;;;;;;;;;;;;;;;7.67;100.00;99271.59;4916383;29;19923;-83
2024/04/05 06:18:20;;;;;;;;;;;;;;;7.69;100.00;99259.22;4917501;29;19923;-87
2024/04/05 06:20:51;;;;;;;;;;;;;;;7.72;100.00;99263.50;4917701;29;20176;-85
2024/04/05 06:23:16;;;;;;;;;;;;;;;7.72;100.00;99264.38;4917464;29;19930;-83
2024/04/05 06:25:49;;;;;;;;;;;;;;;7.71;100.00;99272.34;4917516;29;19919;-84
2024/04/05 06:28:14;;;;;;;;;;;;;;;7.75;100.00;99264.22;4900092;29;19923;-86
2024/04/05 06:30:40;;;;;;;;;;;;;;;7.75;100.00;99258.09;4915971;29;19926;-83
2024/04/05 06:33:05;;;;;;;;;;;;;;;7.75;100.00;99258.94;4917399;29;20049;-85
2024/04/05 06:35:31;;;;;;;;;;;;;;;7.73;100.00;99260.78;4917413;29;19926;-85
2024/04/05 06:37:56;;;;;;;;;;;;;;;6.95;100.00;99259.34;4917414;29;19983;-85
2024/04/05 06:40:22;;;;;;;;;;;;;;;6.54;100.00;99266.94;4917335;29;19923;-85
2024/04/05 06:42:47;;;;;;;;;;;;;;;6.34;100.00;99265.84;4917179;29;19923;-85
2024/04/05 06:45:12;;;;;;;;;;;;;;;6.22;100.00;99265.41;4899051;29;19971;-85
2024/04/05 06:47:37;;;;;;;;;;;;;;;6.16;100.00;99263.84;4899596;29;20346;-85
2024/04/05 06:50:04;;;;;;;;;;;;;;;6.06;100.00;99255.38;4917254;29;19919;-84
2024/04/05 06:52:30;;;;;;;;;;;;;;;6.03;100.00;99257.25;4899953;29;19927;-85
2024/04/05 06:54:56;;;;;;;;;;;;;;;5.97;100.00;99255.72;4917126;29;19985;-84
2024/04/05 06:57:21;;;;;;;;;;;;;;;5.98;100.00;99250.41;4916926;29;19974;-84
2024/04/05 06:59:47;;;;;;;;;;;;;;;5.92;100.00;99245.31;4915585;29;19990;-85
2024/04/05 07:02:12;;;;;;;;;;;;;;;5.89;100.00;99232.25;4916909;29;19959;-84
2024/04/05 07:04:37;;;;;;;;;;;;;;;5.84;100.00;99231.53;4916898;29;19934;-85
2024/04/05 07:07:03;;;;;;;;;;;;;;;5.84;100.00;99228.91;4916744;29;19923;-85
2024/04/05 07:09:29;;;;;;;;;;;;;;;5.83;100.00;99221.94;4916824;29;19962;-82
2024/04/05 07:11:55;;;;;;;;;;;;;;;5.81;100.00;99213.25;4916311;29;19994;-85
2024/04/05 07:14:21;;;;;;;;;;;;;;;5.70;100.00;99220.63;4915908;29;19923;-85
2024/04/05 07:16:46;;;;;;;;;;;;;;;5.71;100.00;99238.09;4916629;29;20294;-82
2024/04/05 07:19:12;;;;;;;;;;;;;;;5.67;100.00;99221.56;4916634;29;19919;-84
2024/04/05 07:21:38;;;;;;;;;;;;;;;5.66;100.00;99225.09;4916538;29;19987;-84
2024/04/05 07:24:04;;;;;;;;;;;;;;;5.65;100.00;99231.28;4916590;29;19930;-84
2024/04/05 07:26:29;;;;;;;;;;;;;;;5.58;100.00;99233.22;4916317;29;20442;-84
2024/04/05 07:28:55;;;;;;;;;;;;;;;5.56;100.00;99226.28;4899417;29;20059;-84
2024/04/05 07:31:20;;;;;;;;;;;;;;;5.58;100.00;99222.69;4898012;29;19962;-85
2024/04/05 07:33:46;;;;;;;;;;;;;;;5.54;100.00;99209.72;4916223;29;20291;-84
2024/04/05 07:36:11;;;;;;;;;;;;;;;5.44;100.00;99204.75;4916357;29;20006;-86
2024/04/05 07:38:37;;;;;;;;;;;;;;;5.42;100.00;99208.31;4916524;29;19915;-85
2024/04/05 07:41:05;;;;;;;;;;;;;;;5.45;100.00;99213.47;4916116;29;20416;-85
2024/04/05 07:46:09;;;;;;;;;;;;;;;5.48;100.00;99223.91;5300424;23;19939;-89
2024/04/05 07:48:35;;;;;;;;;;;;;;;5.50;100.00;99219.44;4919090;29;19927;-95
2024/04/05 07:51:00;;;;;;;;;;;;;;;5.41;100.00;99211.88;4899183;29;19934;-86
2024/04/05 07:53:26;;;;;;;;;;;;;;;5.42;100.00;99216.22;4916147;29;19919;-87
2024/04/05 07:55:51;;;;;;;;;;;;;;;5.46;100.00;99212.59;4916000;29;20338;-88
2024/04/05 07:58:17;;;;;;;;;;;;;;;5.47;100.00;99216.91;4915657;29;19975;-88
2024/04/05 08:00:42;;;;;;;;;;;;;;;5.44;100.00;99214.38;4914410;29;19926;-86
2024/04/05 08:03:09;;;;;;;;;;;;;;;5.49;100.00;99223.00;4897649;29;20335;-86
2024/04/05 08:05:35;;;;;;;;;;;;;;;5.48;100.00;99207.28;4915470;29;19927;-88
2024/04/05 08:08:01;;;;;;;;;;;;;;;5.43;100.00;99212.69;4898920;29;20367;-88
2024/04/05 08:10:26;;;;;;;;;;;;;;;5.40;100.00;99212.78;4915935;29;20354;-90
2024/04/05 08:12:51;;;;;;;;;;;;;;;5.40;100.00;99197.84;4915820;29;20489;-87
2024/04/05 08:15:17;;;;;;;;;;;;;;;5.43;100.00;99200.41;4914632;29;19926;-87
2024/04/05 08:17:42;;;;;;;;;;;;;;;5.45;100.00;99216.13;4915994;29;20398;-87
2024/04/05 08:20:07;;;;;;;;;;;;;;;5.52;100.00;99217.66;4915803;29;19934;-87
2024/04/05 08:22:33;;;;;;;;;;;;;;;5.50;100.00;99218.59;4915892;29;19923;-86
2024/04/05 08:24:58;;;;;;;;;;;;;;;5.45;100.00;99221.38;4915461;29;20014;-86
2024/04/05 08:27:23;;;;;;;;;;;;;;;5.55;100.00;99222.81;4915818;29;20400;-86
2024/04/05 08:29:49;;;;;;;;;;;;;;;5.57;100.00;99226.25;4897482;29;20006;-85
2024/04/05 08:32:14;;;;;;;;;;;;;;;5.51;100.00;99220.34;4898707;29;19919;-85
2024/04/05 08:34:42;;;;;;;;;;;;;;;5.54;100.00;99230.75;4898639;29;19919;-86
2024/04/05 08:37:07;;;;;;;;;;;;;;;5.54;100.00;99236.84;4898455;29;20394;-86
2024/04/05 08:39:42;;;;;;;;;;;;;;;5.58;100.00;99233.22;4915750;29;19923;-92
2024/04/05 08:42:12;;;;;;;;;;;;;;;5.54;100.00;99228.97;4898590;29;19947;-86
2024/04/05 08:44:38;;;;;;;;;;;;;;;5.50;100.00;99231.75;4914384;29;19930;-86
2024/04/05 08:47:04;;;;;;;;;;;;;;;5.56;100.00;99218.41;4897861;29;19923;-86
2024/04/05 08:49:32;;;;;;;;;;;;;;;5.56;100.00;99208.75;4915740;29;20066;-87
2024/04/05 08:51:57;;;;;;;;;;;;;;;5.50;100.00;99206.31;4915318;29;19930;-87
2024/04/05 08:54:22;;;;;;;;;;;;;;;5.51;100.00;99202.78;4897627;29;19919;-87
2024/04/05 08:56:50;;;;;;;;;;;;;;;5.50;100.00;99203.69;4915561;29;19923;-87
2024/04/05 08:59:17;;;;;;;;;;;;;;;5.54;100.00;99200.06;4915089;29;19930;-86
2024/04/05 09:01:46;;;;;;;;;;;;;;;5.54;100.00;99193.97;4914156;29;19919;-87
2024/04/05 09:04:12;;;;;;;;;;;;;;;5.53;100.00;99182.56;4898569;29;20282;-86
2024/04/05 09:06:39;;;;;;;;;;;;;;;5.63;100.00;99196.28;4915453;29;20022;-86
2024/04/05 09:09:04;;;;;;;;;;;;;;;5.65;100.00;99205.00;4897561;29;19919;-86
2024/04/05 09:11:29;;;;;;;;;;;;;;;5.63;100.00;99189.25;4900969;29;19919;-89
2024/04/05 09:13:58;;;;;;;;;;;;;;;5.55;100.00;99191.28;4901948;29;20255;-86
2024/04/05 09:16:25;;;;;;;;;;;;;;;5.55;100.00;99186.03;4917644;29;19919;-86
2024/04/05 09:18:50;;;;;;;;;;;;;;;5.53;100.00;99177.31;4920165;29;19923;-85
2024/04/05 09:21:17;;;;;;;;;;;;;;;5.51;100.00;99194.91;4918898;29;19971;-86
2024/04/05 09:23:43;;;;;;;;;;;;;;;5.54;100.00;99204.47;4917435;29;19920;-87
2024/04/05 09:26:09;;;;;;;;;;;;;;;5.59;100.00;99206.03;4901669;29;19952;-87
2024/04/05 09:28:46;;;;;;;;;;;;;;;5.57;100.00;99215.75;4918016;29;20293;-95
2024/04/05 09:31:17;;;;;;;;;;;;;;;5.57;100.00;99214.88;4917287;29;19919;-87
2024/04/05 09:33:43;;;;;;;;;;;;;;;5.59;100.00;99223.56;4901388;29;19927;-88
2024/04/05 09:36:10;;;;;;;;;;;;;;;5.55;100.00;99225.44;4901382;29;19923;-87
2024/04/05 09:38:36;;;;;;;;;;;;;;;5.45;100.00;99239.75;4901623;29;20396;-87
2024/04/05 09:41:03;;;;;;;;;;;;;;;5.53;100.00;99236.91;4918470;29;19923;-87
2024/04/05 09:43:29;;;;;;;;;;;;;;;5.56;100.00;99247.31;4918471;29;19923;-87
2024/04/05 09:45:54;;;;;;;;;;;;;;;5.55;100.00;99246.47;4899974;29;19931;-87
2024/04/05 09:48:21;;;;;;;;;;;;;;;5.53;100.00;99245.63;4901362;29;19923;-87
2024/04/05 09:50:48;;;;;;;;;;;;;;;5.50;100.00;99245.72;4918176;29;19922;-87
2024/04/05 09:53:16;;;;;;;;;;;;;;;5.59;100.00;99234.09;4901087;29;20291;-87
2024/04/05 09:55:43;;;;;;;;;;;;;;;5.61;100.00;99248.03;4901253;29;19919;-87
2024/04/05 09:58:10;;;;;;;;;;;;;;;5.59;100.00;99245.44;4900414;29;19919;-86
2024/04/05 10:00:37;;;;;;;;;;;;;;;5.61;100.00;99250.66;4916686;29;19930;-86
2024/04/05 10:03:03;;;;;;;;;;;;;;;5.56;100.00;99256.06;4900887;29;19922;-86
2024/04/05 10:05:29;;;;;;;;;;;;;;;5.58;100.00;99274.41;4901008;29;19926;-86
2024/04/05 10:07:55;;;;;;;;;;;;;;;5.63;100.00;99265.50;4917821;29;20491;-86
2024/04/05 10:10:28;;;;;;;;;;;;;;;5.62;100.00;99263.75;4900846;29;19997;-86
2024/04/05 10:12:53;;;;;;;;;;;;;;;5.58;100.00;99258.63;4917850;29;19919;-86
2024/04/05 10:15:24;;;;;;;;;;;;;;;5.58;100.00;99259.50;4899495;29;19926;-86
2024/04/05 10:17:54;;;;;;;;;;;;;;;5.55;100.00;99248.22;4917001;29;19926;-85
2024/04/05 10:20:21;;;;;;;;;;;;;;;5.66;100.00;99253.16;4916976;29;19951;-85
2024/04/05 10:22:56;;;;;;;;;;;;;;;5.64;100.00;99261.94;4916752;29;19919;-91
2024/04/05 10:25:21;;;;;;;;;;;;;;;5.56;100.00;99268.34;4917067;29;20371;-87
2024/04/05 10:27:51;;;;;;;;;;;;;;;5.69;100.00;99251.28;4917585;29;19975;-83
2024/04/05 10:30:17;;;;;;;;;;;;;;;5.71;100.00;99251.22;4898994;29;19923;-83
2024/04/05 10:32:42;;;;;;;;;;;;;;;5.68;100.00;99257.47;4917495;29;19970;-86
2024/04/05 10:35:08;;;;;;;;;;;;;;;5.66;100.00;99255.78;4900378;29;19923;-86
2024/04/05 10:37:35;;;;;;;;;;;;;;;5.72;100.00;99264.31;4900459;29;19923;-85
2024/04/05 10:40:03;;;;;;;;;;;;;;;5.67;100.00;99257.50;4899685;29;20357;-85
2024/04/05 10:42:29;;;;;;;;;;;;;;;5.59;100.00;99242.81;4917229;29;19982;-87
2024/04/05 10:44:58;;;;;;;;;;;;;;;5.60;100.00;99231.41;4915855;29;20359;-86
2024/04/05 10:47:25;;;;;;;;;;;;;;;5.63;100.00;99231.31;4916463;29;19927;-85
2024/04/05 10:50:05;;;;;;;;;;;;;;;5.63;100.00;99233.94;4917102;29;19919;-86
2024/04/05 10:52:32;;;;;;;;;;;;;;;5.65;100.00;99228.66;4916908;29;19919;-87
2024/04/05 10:55:09;;;;;;;;;;;;;;;5.63;100.00;99225.19;4917104;29;19970;-89
2024/04/05 10:57:34;;;;;;;;;;;;;;;5.65;100.00;99202.34;4916516;29;19924;-85
2024/04/05 11:00:00;;;;;;;;;;;;;;;5.66;100.00;99188.28;4915524;29;19941;-87
2024/04/05 11:02:27;;;;;;;;;;;;;;;5.68;100.00;99191.75;4899855;29;19930;-86
2024/04/05 11:05:02;;;;;;;;;;;;;;;5.61;100.00;99201.56;4917309;29;20323;-86
2024/04/05 11:07:27;;;;;;;;;;;;;;;5.64;100.00;99204.09;4916579;29;20402;-87
2024/04/05 11:09:54;;;;;;;;;;;;;;;5.64;100.00;99211.16;4916924;29;19919;-87
2024/04/05 11:12:19;;;;;;;;;;;;;;;5.62;100.00;99221.69;4916704;29;19994;-86
2024/04/05 11:14:45;;;;;;;;;;;;;;;5.69;100.00;99226.78;4915468;29;20532;-86
2024/04/05 11:17:10;;;;;;;;;;;;;;;5.67;100.00;99220.72;4916936;29;19919;-87
2024/04/05 11:19:35;;;;;;;;;;;;;;;5.67;100.00;99247.00;4916953;29;19923;-87
2024/04/05 11:22:04;;;;;;;;;;;;;;;5.69;100.00;99235.50;4916664;29;19919;-87
2024/04/05 11:24:29;;;;;;;;;;;;;;;5.71;100.00;99233.72;4916582;29;20422;-89
2024/04/05 11:26:54;;;;;;;;;;;;;;;5.71;100.00;99228.44;4916612;29;20017;-86
2024/04/05 11:29:20;;;;;;;;;;;;;;;5.66;100.00;99240.84;4916439;29;20297;-87
2024/04/05 11:31:46;;;;;;;;;;;;;;;5.67;100.00;99242.59;4915227;29;19927;-86
2024/04/05 11:34:11;;;;;;;;;;;;;;;5.66;100.00;99245.25;4916303;29;19923;-88
2024/04/05 11:36:36;;;;;;;;;;;;;;;5.70;100.00;99242.50;4916671;29;19967;-85
2024/04/05 11:39:02;;;;;;;;;;;;;;;5.68;100.00;99248.69;4899480;29;20271;-83
2024/04/05 11:41:28;;;;;;;;;;;;;;;5.74;100.00;99254.63;4916360;29;19941;-86
2024/04/05 11:43:54;;;;;;;;;;;;;;;5.74;100.00;99275.66;4899104;29;19923;-86
2024/04/05 11:46:19;;;;;;;;;;;;;;;5.72;100.00;99277.47;4897795;29;20572;-85
2024/04/05 11:48:45;;;;;;;;;;;;;;;5.77;100.00;99274.69;4916253;29;20058;-85
2024/04/05 11:51:10;;;;;;;;;;;;;;;5.72;100.00;99281.88;4916262;29;19923;-88
2024/04/05 11:53:35;;;;;;;;;;;;;;;5.74;100.00;99280.06;4916283;29;20361;-86
2024/04/05 11:56:03;;;;;;;;;;;;;;;5.70;100.00;99284.56;4916092;29;20484;-88
2024/04/05 11:58:34;;;;;;;;;;;;;;;5.78;100.00;99271.19;4915573;29;20009;-91
2024/04/05 12:00:59;;;;;;;;;;;;;;;5.71;100.00;99281.03;4898477;29;19923;-86
2024/04/05 12:03:26;;;;;;;;;;;;;;;5.75;100.00;99273.91;4916095;29;19950;-90
2024/04/05 12:05:52;;;;;;;;;;;;;;;5.77;100.00;99295.72;4898781;29;19924;-91
2024/04/05 12:08:17;;;;;;;;;;;;;;;5.79;100.00;99309.69;4899218;29;19919;-88
2024/04/05 12:10:42;;;;;;;;;;;;;;;5.86;100.00;99311.22;4898807;29;19931;-86
2024/04/05 12:13:07;;;;;;;;;;;;;;;5.80;100.00;99308.78;4898805;29;19919;-88
2024/04/05 12:15:33;;;;;;;;;;;;;;;5.89;100.00;99313.75;4897471;29;20271;-86
2024/04/05 12:17:58;;;;;;;;;;;;;;;5.83;100.00;99296.41;4898848;29;19931;-87
2024/04/05 12:20:23;;;;;;;;;;;;;;;5.80;100.00;99293.00;4898665;29;19942;-87
2024/04/05 12:22:49;;;;;;;;;;;;;;;5.83;100.00;99275.38;4898731;29;19954;-91
2024/04/05 12:25:17;;;;;;;;;;;;;;;5.74;100.00;99285.31;4915676;29;19930;-87
2024/04/05 12:27:45;;;;;;;;;;;;;;;5.75;100.00;99289.69;4915736;29;19930;-89
2024/04/05 12:30:10;;;;;;;;;;;;;;;5.82;100.00;99284.19;4914524;29;19927;-86
2024/04/05 12:32:36;;;;;;;;;;;;;;;5.74;100.00;99290.56;4898626;29;19920;-89
2024/04/05 12:35:02;;;;;;;;;;;;;;;5.79;100.00;99291.28;4894517;29;19930;-86
2024/04/05 12:37:27;;;;;;;;;;;;;;;5.79;100.00;99288.66;4915339;29;19919;-85
2024/04/05 12:39:54;;;;;;;;;;;;;;;5.81;100.00;99297.38;4898600;29;20302;-87
2024/04/05 12:42:20;;;;;;;;;;;;;;;5.78;100.00;99300.09;4897892;29;19983;-87
2024/04/05 12:44:47;;;;;;;;;;;;;;;5.82;100.00;99312.22;4897347;29;20374;-87
2024/04/05 12:47:12;;;;;;;;;;;;;;;5.81;100.00;99313.16;4919171;29;20399;-87
2024/04/05 12:49:38;;;;;;;;;;;;;;;5.83;100.00;99321.84;4919296;29;20030;-87
2024/04/05 12:52:03;;;;;;;;;;;;;;;5.85;100.00;99312.13;4902278;29;20378;-85
2024/04/05 12:54:30;;;;;;;;;;;;;;;5.82;100.00;99315.72;4918805;29;19970;-86
2024/04/05 12:56:56;;;;;;;;;;;;;;;5.83;100.00;99322.69;4902476;29;19927;-92
2024/04/05 12:59:21;;;;;;;;;;;;;;;5.80;100.00;99314.03;4902086;29;19942;-85
2024/04/05 13:01:46;;;;;;;;;;;;;;;5.74;100.00;99311.59;4917789;29;19946;-84
2024/04/05 13:04:12;;;;;;;;;;;;;;;5.74;100.00;99317.72;4919015;29;20058;-87
2024/04/05 13:06:39;;;;;;;;;;;;;;;5.79;100.00;99320.19;4918853;29;19919;-86
2024/04/05 13:09:05;;;;;;;;;;;;;;;5.71;100.00;99311.69;4918868;29;19931;-83
2024/04/05 13:11:30;;;;;;;;;;;;;;;5.72;100.00;99310.78;4918855;29;19919;-84
2024/04/05 13:13:55;;;;;;;;;;;;;;;5.77;100.00;99291.31;4918803;29;19920;-84
2024/04/05 13:16:20;;;;;;;;;;;;;;;5.74;100.00;99299.31;4917578;29;19919;-84
2024/04/05 13:18:46;;;;;;;;;;;;;;;5.71;100.00;99306.44;4918980;29;19926;-85
2024/04/05 13:21:13;;;;;;;;;;;;;;;5.71;100.00;99312.56;4902239;29;20397;-84
2024/04/05 13:23:41;;;;;;;;;;;;;;;5.74;100.00;99316.84;4918675;29;20398;-86
2024/04/05 13:26:09;;;;;;;;;;;;;;;5.79;100.00;99322.81;4901736;29;19935;-85
2024/04/05 13:28:35;;;;;;;;;;;;;;;5.70;100.00;99329.25;4918088;29;20321;-86
2024/04/05 13:31:00;;;;;;;;;;;;;;;5.75;100.00;99334.38;4917585;29;19920;-85
2024/04/05 13:33:28;;;;;;;;;;;;;;;5.77;100.00;99333.38;4901440;29;20358;-85
2024/04/05 13:35:53;;;;;;;;;;;;;;;5.75;100.00;99337.00;4918303;29;20035;-84
2024/04/05 13:38:18;;;;;;;;;;;;;;;5.84;100.00;99339.34;4901406;29;20005;-83
2024/04/05 13:40:44;;;;;;;;;;;;;;;5.79;100.00;99342.13;4917638;29;19945;-87
2024/04/05 13:43:09;;;;;;;;;;;;;;;5.74;100.00;99338.75;4918338;29;19978;-84
2024/04/05 13:45:36;;;;;;;;;;;;;;;5.79;100.00;99343.88;4899858;29;19927;-84
2024/04/05 13:48:02;;;;;;;;;;;;;;;5.85;100.00;99351.56;4888065;29;19919;-86
2024/04/05 13:50:27;;;;;;;;;;;;;;;5.88;100.00;99340.97;4908898;29;20379;-85
2024/04/05 13:52:53;;;;;;;;;;;;;;;5.80;100.00;99340.34;4908825;29;19974;-86
2024/04/05 13:55:19;;;;;;;;;;;;;;;5.71;100.00;99332.72;4908751;29;20022;-85
2024/04/05 13:57:44;;;;;;;;;;;;;;;5.79;100.00;99330.72;4907110;29;20349;-89
2024/04/05 14:00:13;;;;;;;;;;;;;;;5.83;100.00;99319.22;4908288;29;19923;-86
2024/04/05 14:02:38;;;;;;;;;;;;;;;5.80;100.00;99307.00;4907751;29;19923;-85
2024/04/05 14:05:05;;;;;;;;;;;;;;;5.75;100.00;99301.03;4891344;29;19947;-84
2024/04/05 14:07:30;;;;;;;;;;;;;;;5.73;100.00;99304.66;4891730;29;19975;-84
2024/04/05 14:09:55;;;;;;;;;;;;;;;5.69;100.00;99306.47;4907347;29;19958;-86
2024/04/05 14:12:21;;;;;;;;;;;;;;;5.79;100.00;99307.94;4891468;29;20010;-85
2024/04/05 14:14:48;;;;;;;;;;;;;;;5.75;100.00;99305.44;4907390;29;19923;-86
2024/04/05 14:17:13;;;;;;;;;;;;;;;5.75;100.00;99311.56;4908324;29;19924;-85
2024/04/05 14:19:41;;;;;;;;;;;;;;;5.70;100.00;99305.59;4892733;29;19983;-85
2024/04/05 14:22:06;;;;;;;;;;;;;;;5.82;100.00;99315.72;4908898;29;19966;-91
2024/04/05 14:24:31;;;;;;;;;;;;;;;5.78;100.00;99311.47;4908360;29;20342;-87
2024/04/05 14:26:57;;;;;;;;;;;;;;;5.73;100.00;99315.16;4907081;29;19947;-85
2024/04/05 14:29:22;;;;;;;;;;;;;;;5.79;100.00;99313.19;4908270;29;20022;-86
2024/04/05 14:31:47;;;;;;;;;;;;;;;5.81;100.00;99310.53;4905571;29;20315;-83
2024/04/05 14:34:13;;;;;;;;;;;;;;;5.83;100.00;99314.81;4907783;29;19923;-85
2024/04/05 14:36:41;;;;;;;;;;;;;;;5.79;100.00;99309.69;4908180;29;19962;-86
2024/04/05 14:39:07;;;;;;;;;;;;;;;5.88;100.00;99312.03;4891194;29;19919;-85
2024/04/05 14:41:33;;;;;;;;;;;;;;;5.89;100.00;99316.41;4890726;29;19919;-89
2024/04/05 14:43:58;;;;;;;;;;;;;;;5.84;100.00;99323.56;4907047;29;19915;-92
2024/04/05 14:46:24;;;;;;;;;;;;;;;5.89;100.00;99328.66;4910086;29;20009;-85
2024/04/05 14:48:49;;;;;;;;;;;;;;;5.91;100.00;99332.13;4916361;29;19926;-86
2024/04/05 14:51:15;;;;;;;;;;;;;;;5.86;100.00;99327.00;4917075;29;19918;-85
2024/04/05 14:53:40;;;;;;;;;;;;;;;5.86;100.00;99334.91;4917024;29;19923;-85
2024/04/05 14:56:06;;;;;;;;;;;;;;;5.89;100.00;99332.19;4917266;29;19946;-85
2024/04/05 14:58:32;;;;;;;;;;;;;;;5.86;100.00;99332.28;4917004;29;19963;-85
2024/04/05 15:00:58;;;;;;;;;;;;;;;5.87;100.00;99334.00;4916129;29;19974;-87
2024/04/05 15:03:23;;;;;;;;;;;;;;;5.82;100.00;99333.25;4900095;29;19923;-86
2024/04/05 15:06:04;;;;;;;;;;;;;;;5.84;100.00;99339.34;4917144;29;20260;-86
2024/04/05 15:08:31;;;;;;;;;;;;;;;5.89;100.00;99345.31;4900964;29;19919;-86
2024/04/05 15:10:56;;;;;;;;;;;;;;;5.83;100.00;99341.09;4916751;29;19951;-84
2024/04/05 15:13:22;;;;;;;;;;;;;;;5.80;100.00;99343.81;4916868;29;19927;-87
2024/04/05 15:15:47;;;;;;;;;;;;;;;5.90;100.00;99333.88;4915424;29;19923;-84
2024/04/05 15:18:13;;;;;;;;;;;;;;;5.80;100.00;99337.72;4917008;29;19923;-85
2024/04/05 15:20:38;;;;;;;;;;;;;;;5.83;100.00;99332.34;4916706;29;19974;-85
2024/04/05 15:23:03;;;;;;;;;;;;;;;5.85;100.00;99330.53;4916855;29;19970;-84
2024/04/05 15:25:28;;;;;;;;;;;;;;;5.86;100.00;99331.41;4916632;29;19919;-86
2024/04/05 15:27:54;;;;;;;;;;;;;;;5.93;100.00;99333.78;4916623;29;20295;-87
2024/04/05 15:30:19;;;;;;;;;;;;;;;5.93;100.00;99339.03;4898389;29;19920;-87
2024/04/05 15:32:44;;;;;;;;;;;;;;;5.97;100.00;99340.72;4899327;29;19978;-82
2024/04/05 15:35:09;;;;;;;;;;;;;;;5.92;100.00;99337.34;4899577;29;19920;-87
2024/04/05 15:37:44;;;;;;;;;;;;;;;5.85;100.00;99338.44;4899467;29;19935;-86
2024/04/05 15:40:10;;;;;;;;;;;;;;;5.90;100.00;99341.75;4876278;29;19920;-85
2024/04/05 15:42:36;;;;;;;;;;;;;;;5.91;100.00;99342.66;4876343;29;19927;-87
2024/04/05 15:45:01;;;;;;;;;;;;;;;5.90;100.00;99344.41;4859980;29;19975;-85
2024/04/05 15:47:26;;;;;;;;;;;;;;;5.93;100.00;99354.81;4876241;29;19924;-86
2024/04/05 15:49:52;;;;;;;;;;;;;;;5.95;100.00;99350.41;4860734;29;20296;-86
2024/04/05 15:52:17;;;;;;;;;;;;;;;5.98;100.00;99349.44;4876386;29;19916;-86
2024/04/05 15:54:43;;;;;;;;;;;;;;;5.89;100.00;99355.84;4876387;29;19996;-87
2024/04/05 15:57:08;;;;;;;;;;;;;;;6.00;100.00;99356.41;4876341;29;20435;-85
2024/04/05 15:59:33;;;;;;;;;;;;;;;5.95;100.00;99358.28;4874564;29;20396;-84
2024/04/05 16:01:59;;;;;;;;;;;;;;;5.94;100.00;99367.06;4875739;29;20384;-86
2024/04/05 16:04:24;;;;;;;;;;;;;;;5.93;100.00;99367.97;4876338;29;19975;-84
2024/04/05 16:06:50;;;;;;;;;;;;;;;5.92;100.00;99355.75;4876024;29;20010;-83
2024/04/05 16:09:15;;;;;;;;;;;;;;;5.90;100.00;99365.44;4876290;29;19927;-87
2024/04/05 16:11:40;;;;;;;;;;;;;;;5.88;100.00;99362.00;4904613;29;20290;-84
2024/04/05 16:14:05;;;;;;;;;;;;;;;5.86;100.00;99361.19;4898789;29;19923;-84
2024/04/05 16:16:31;;;;;;;;;;;;;;;5.83;100.00;99362.13;4914990;29;19926;-86
2024/04/05 16:18:56;;;;;;;;;;;;;;;5.84;100.00;99360.38;4898757;29;19930;-86
2024/04/05 16:21:22;;;;;;;;;;;;;;;5.86;100.00;99366.44;4898098;29;19919;-85
2024/04/05 16:23:50;;;;;;;;;;;;;;;5.86;100.00;99363.81;4915818;29;19930;-86
2024/04/05 16:26:18;;;;;;;;;;;;;;;5.83;100.00;99349.00;4898809;29;20138;-85
2024/04/05 16:28:45;;;;;;;;;;;;;;;5.79;100.00;99357.00;4915682;29;20018;-90
2024/04/05 16:31:14;;;;;;;;;;;;;;;5.80;100.00;99349.06;4897636;29;20401;-86
2024/04/05 16:33:40;;;;;;;;;;;;;;;5.72;100.00;99350.22;4914227;29;19930;-89
2024/04/05 16:36:07;;;;;;;;;;;;;;;5.75;100.00;99347.50;4915796;29;19923;-87
2024/04/05 16:38:35;;;;;;;;;;;;;;;5.74;100.00;99344.00;4898732;29;19918;-88
2024/04/05 16:41:02;;;;;;;;;;;;;;;5.79;100.00;99343.88;4898723;29;20337;-86
2024/04/05 16:43:35;;;;;;;;;;;;;;;5.77;100.00;99338.66;4914993;29;20355;-85
2024/04/05 16:46:01;;;;;;;;;;;;;;;5.74;100.00;99337.88;4913691;29;19927;-84
2024/04/05 16:48:26;;;;;;;;;;;;;;;5.75;100.00;99326.47;4915573;29;19919;-86
2024/04/05 16:56:33;;;;;;;;;;;;;;;5.82;100.00;99326.25;5265898;23;19935;-88
2024/04/05 16:59:00;;;;;;;;;;;;;;;5.80;100.00;99322.78;4861263;29;20376;-92
2024/04/05 17:01:26;;;;;;;;;;;;;;;5.78;100.00;99321.13;4876663;29;19923;-87
2024/04/05 17:03:52;;;;;;;;;;;;;;;5.71;100.00;99317.84;4878869;29;20388;-85
2024/04/05 17:06:24;;;;;;;;;;;;;;;5.75;100.00;99319.44;4877753;29;20044;-84
2024/04/05 17:08:49;;;;;;;;;;;;;;;5.79;100.00;99331.59;4877752;29;20317;-85
2024/04/05 17:11:16;;;;;;;;;;;;;;;5.75;100.00;99324.69;4877854;29;19980;-85
2024/04/05 17:13:44;;;;;;;;;;;;;;;5.70;100.00;99321.34;4877688;29;20328;-83
2024/04/05 17:16:10;;;;;;;;;;;;;;;5.70;100.00;99316.09;4876903;29;19943;-85
2024/04/05 17:18:35;;;;;;;;;;;;;;;5.70;100.00;99312.63;4877424;29;20355;-88
2024/04/05 17:21:01;;;;;;;;;;;;;;;5.71;100.00;99309.06;4877017;29;19930;-84
2024/04/05 17:23:27;;;;;;;;;;;;;;;5.76;100.00;99309.78;4877120;29;20271;-86
2024/04/05 17:25:53;;;;;;;;;;;;;;;5.73;100.00;99310.75;4877326;29;19924;-87
2024/04/05 17:28:18;;;;;;;;;;;;;;;5.68;100.00;99310.03;4878257;29;19920;-85
2024/04/05 17:30:46;;;;;;;;;;;;;;;5.71;100.00;99316.94;4876912;29;19980;-86
2024/04/05 17:33:11;;;;;;;;;;;;;;;5.70;100.00;99325.75;4880659;29;19926;-83
2024/04/05 17:35:45;;;;;;;;;;;;;;;5.71;100.00;99327.47;4881534;29;20007;-93
2024/04/05 17:38:11;;;;;;;;;;;;;;;5.68;100.00;99340.69;4882711;29;20010;-85
2024/04/05 17:40:36;;;;;;;;;;;;;;;5.71;100.00;99343.25;4880881;29;19923;-82
2024/04/05 17:43:01;;;;;;;;;;;;;;;5.63;100.00;99360.13;4879789;29;19920;-83
2024/04/05 17:45:26;;;;;;;;;;;;;;;5.61;100.00;99371.56;4879488;29;19931;-86
2024/04/05 17:47:52;;;;;;;;;;;;;;;5.64;100.00;99379.38;4880803;29;19962;-85
2024/04/05 17:50:17;;;;;;;;;;;;;;;5.71;100.00;99383.56;4880149;29;19928;-86
2024/04/05 17:52:50;;;;;;;;;;;;;;;5.62;100.00;99384.66;4863729;29;20307;-91
2024/04/05 17:55:18;;;;;;;;;;;;;;;5.67;100.00;99391.56;4864239;29;19920;-93
2024/04/05 17:57:43;;;;;;;;;;;;;;;5.73;100.00;99380.88;4863214;29;19924;-85
2024/04/05 18:00:41;;;;;;;;;;;;;;;5.68;100.00;99380.13;4879808;29;19931;-93
2024/04/05 18:03:06;;;;;;;;;;;;;;;5.72;100.00;99366.00;4809057;29;19932;-90
2024/04/05 18:05:34;;;;;;;;;;;;;;;5.75;100.00;99376.44;4880347;29;19931;-90
2024/04/05 18:07:59;;;;;;;;;;;;;;;5.73;100.00;99373.00;4863574;29;20395;-84